sensor_id;sensor_type;location;lat;lon;timestamp;pressure;altitude;pressure_sealevel;temperature
42197;BMP280;27866;48.146;17.098;2023-06-22T00:03:24;99893.41;;;25.71
42197;BMP280;27866;48.146;17.098;2023-06-22T00:07:35;99896.41;;;25.68
42197;BMP280;27866;48.146;17.098;2023-06-22T00:11:46;99897.00;;;25.63
42197;BMP280;27866;48.146;17.098;2023-06-22T00:15:57;99890.38;;;25.53
42197;BMP280;27866;48.146;17.098;2023-06-22T00:20:08;99901.47;;;25.36
42197;BMP280;27866;48.146;17.098;2023-06-22T00:24:21;99895.75;;;25.33
42197;BMP280;27866;48.146;17.098;2023-06-22T00:28:32;99901.63;;;25.28
42197;BMP280;27866;48.146;17.098;2023-06-22T00:32:45;99904.84;;;25.24
42197;BMP280;27866;48.146;17.098;2023-06-22T00:36:58;99901.13;;;25.19
42197;BMP280;27866;48.146;17.098;2023-06-22T00:41:10;99899.63;;;25.10
42197;BMP280;27866;48.146;17.098;2023-06-22T00:45:22;99904.94;;;25.10
42197;BMP280;27866;48.146;17.098;2023-06-22T00:49:34;99901.66;;;25.08
42197;BMP280;27866;48.146;17.098;2023-06-22T00:53:45;99896.44;;;25.00
42197;BMP280;27866;48.146;17.098;2023-06-22T00:57:58;99895.91;;;25.05
42197;BMP280;27866;48.146;17.098;2023-06-22T01:02:09;99893.38;;;24.97
42197;BMP280;27866;48.146;17.098;2023-06-22T01:06:35;99875.13;;;24.88
42197;BMP280;27866;48.146;17.098;2023-06-22T01:11:00;99876.25;;;24.79
42197;BMP280;27866;48.146;17.098;2023-06-22T01:15:28;99879.50;;;24.75
42197;BMP280;27866;48.146;17.098;2023-06-22T01:19:51;99866.41;;;24.73
42197;BMP280;27866;48.146;17.098;2023-06-22T01:24:27;99863.25;;;24.64
42197;BMP280;27866;48.146;17.098;2023-06-22T01:28:49;99852.78;;;24.56
42197;BMP280;27866;48.146;17.098;2023-06-22T01:33:01;99859.50;;;24.52
42197;BMP280;27866;48.146;17.098;2023-06-22T01:37:14;99859.03;;;24.49
42197;BMP280;27866;48.146;17.098;2023-06-22T01:41:26;99859.41;;;24.46
42197;BMP280;27866;48.146;17.098;2023-06-22T01:45:37;99845.97;;;24.47
42197;BMP280;27866;48.146;17.098;2023-06-22T01:49:49;99852.47;;;24.45
42197;BMP280;27866;48.146;17.098;2023-06-22T01:54:02;99852.38;;;24.39
42197;BMP280;27866;48.146;17.098;2023-06-22T01:58:13;99846.63;;;24.35
42197;BMP280;27866;48.146;17.098;2023-06-22T02:02:25;99850.69;;;24.31
42197;BMP280;27866;48.146;17.098;2023-06-22T02:06:42;99851.47;;;24.32
42197;BMP280;27866;48.146;17.098;2023-06-22T02:10:56;99849.47;;;24.34
42197;BMP280;27866;48.146;17.098;2023-06-22T02:15:09;99841.63;;;24.26
42197;BMP280;27866;48.146;17.098;2023-06-22T02:19:24;99847.50;;;24.22
42197;BMP280;27866;48.146;17.098;2023-06-22T02:23:35;99853.34;;;24.17
42197;BMP280;27866;48.146;17.098;2023-06-22T02:27:46;99849.63;;;24.12
42197;BMP280;27866;48.146;17.098;2023-06-22T02:31:57;99844.88;;;24.08
42197;BMP280;27866;48.146;17.098;2023-06-22T02:36:09;99849.97;;;24.09
42197;BMP280;27866;48.146;17.098;2023-06-22T02:40:20;99844.88;;;24.08
42197;BMP280;27866;48.146;17.098;2023-06-22T02:44:31;99854.81;;;24.06
42197;BMP280;27866;48.146;17.098;2023-06-22T02:48:42;99856.19;;;24.02
42197;BMP280;27866;48.146;17.098;2023-06-22T02:52:53;99853.94;;;23.99
42197;BMP280;27866;48.146;17.098;2023-06-22T02:57:04;99848.00;;;23.97
42197;BMP280;27866;48.146;17.098;2023-06-22T03:01:17;99847.38;;;23.95
42197;BMP280;27866;48.146;17.098;2023-06-22T03:05:34;99848.19;;;23.95
42197;BMP280;27866;48.146;17.098;2023-06-22T03:09:46;99844.72;;;23.95
42197;BMP280;27866;48.146;17.098;2023-06-22T03:13:58;99854.28;;;23.96
42197;BMP280;27866;48.146;17.098;2023-06-22T03:18:09;99846.00;;;23.99
42197;BMP280;27866;48.146;17.098;2023-06-22T03:22:20;99841.34;;;24.01
42197;BMP280;27866;48.146;17.098;2023-06-22T03:26:31;99847.53;;;24.08
42197;BMP280;27866;48.146;17.098;2023-06-22T03:30:42;99854.34;;;24.16
42197;BMP280;27866;48.146;17.098;2023-06-22T03:34:53;99836.34;;;24.26
42197;BMP280;27866;48.146;17.098;2023-06-22T03:39:04;99839.78;;;24.40
42197;BMP280;27866;48.146;17.098;2023-06-22T03:43:16;99852.00;;;24.55
42197;BMP280;27866;48.146;17.098;2023-06-22T03:47:27;99850.84;;;24.64
42197;BMP280;27866;48.146;17.098;2023-06-22T03:51:38;99847.88;;;24.73
42197;BMP280;27866;48.146;17.098;2023-06-22T03:55:50;99857.34;;;24.82
42197;BMP280;27866;48.146;17.098;2023-06-22T04:00:02;99868.31;;;24.79
42197;BMP280;27866;48.146;17.098;2023-06-22T04:04:22;99858.41;;;24.87
42197;BMP280;27866;48.146;17.098;2023-06-22T04:08:34;99860.59;;;25.04
42197;BMP280;27866;48.146;17.098;2023-06-22T04:12:45;99859.47;;;25.13
42197;BMP280;27866;48.146;17.098;2023-06-22T04:16:58;99866.66;;;25.19
42197;BMP280;27866;48.146;17.098;2023-06-22T04:21:10;99863.63;;;25.22
42197;BMP280;27866;48.146;17.098;2023-06-22T04:25:21;99863.09;;;25.32
42197;BMP280;27866;48.146;17.098;2023-06-22T04:29:34;99866.59;;;25.39
42197;BMP280;27866;48.146;17.098;2023-06-22T04:33:45;99869.09;;;25.47
42197;BMP280;27866;48.146;17.098;2023-06-22T04:37:57;99860.47;;;25.65
42197;BMP280;27866;48.146;17.098;2023-06-22T04:42:09;99868.13;;;25.74
42197;BMP280;27866;48.146;17.098;2023-06-22T04:46:20;99865.13;;;25.90
42197;BMP280;27866;48.146;17.098;2023-06-22T04:50:31;99861.53;;;26.10
42197;BMP280;27866;48.146;17.098;2023-06-22T04:54:42;99865.28;;;26.21
42197;BMP280;27866;48.146;17.098;2023-06-22T04:58:58;99865.97;;;26.36
42197;BMP280;27866;48.146;17.098;2023-06-22T05:03:09;99864.19;;;26.55
42197;BMP280;27866;48.146;17.098;2023-06-22T05:07:21;99861.97;;;26.65
42197;BMP280;27866;48.146;17.098;2023-06-22T05:11:36;99863.22;;;26.75
42197;BMP280;27866;48.146;17.098;2023-06-22T05:15:47;99865.47;;;26.84
42197;BMP280;27866;48.146;17.098;2023-06-22T05:19:58;99876.34;;;26.89
42197;BMP280;27866;48.146;17.098;2023-06-22T05:24:09;99878.19;;;27.07
42197;BMP280;27866;48.146;17.098;2023-06-22T05:28:20;99876.56;;;27.13
42197;BMP280;27866;48.146;17.098;2023-06-22T05:32:33;99884.13;;;27.22
42197;BMP280;27866;48.146;17.098;2023-06-22T05:36:44;99884.56;;;27.44
42197;BMP280;27866;48.146;17.098;2023-06-22T05:40:56;99890.91;;;27.56
42197;BMP280;27866;48.146;17.098;2023-06-22T05:45:07;99896.19;;;27.68
42197;BMP280;27866;48.146;17.098;2023-06-22T05:49:18;99889.22;;;27.74
42197;BMP280;27866;48.146;17.098;2023-06-22T05:53:29;99897.63;;;27.77
42197;BMP280;27866;48.146;17.098;2023-06-22T05:57:40;99898.59;;;27.95
42197;BMP280;27866;48.146;17.098;2023-06-22T06:01:51;99893.28;;;28.01
42197;BMP280;27866;48.146;17.098;2023-06-22T06:06:02;99891.00;;;28.11
42197;BMP280;27866;48.146;17.098;2023-06-22T06:10:13;99889.09;;;28.24
42197;BMP280;27866;48.146;17.098;2023-06-22T06:14:24;99900.53;;;28.37
42197;BMP280;27866;48.146;17.098;2023-06-22T06:18:35;99886.56;;;28.41
42197;BMP280;27866;48.146;17.098;2023-06-22T06:22:48;99884.16;;;28.27
42197;BMP280;27866;48.146;17.098;2023-06-22T06:26:59;99885.38;;;28.31
42197;BMP280;27866;48.146;17.098;2023-06-22T06:31:10;99882.25;;;28.47
42197;BMP280;27866;48.146;17.098;2023-06-22T06:35:23;99879.53;;;28.53
42197;BMP280;27866;48.146;17.098;2023-06-22T06:39:34;99876.78;;;28.72
42197;BMP280;27866;48.146;17.098;2023-06-22T06:43:45;99892.50;;;28.79
42197;BMP280;27866;48.146;17.098;2023-06-22T06:47:56;99888.31;;;28.96
42197;BMP280;27866;48.146;17.098;2023-06-22T06:52:07;99894.88;;;29.00
42197;BMP280;27866;48.146;17.098;2023-06-22T06:56:19;99890.38;;;29.24
42197;BMP280;27866;48.146;17.098;2023-06-22T07:00:30;99891.69;;;29.39
42197;BMP280;27866;48.146;17.098;2023-06-22T07:04:41;99888.84;;;29.34
42197;BMP280;27866;48.146;17.098;2023-06-22T07:08:52;99886.16;;;29.17
42197;BMP280;27866;48.146;17.098;2023-06-22T07:13:03;99874.72;;;29.51
42197;BMP280;27866;48.146;17.098;2023-06-22T07:17:14;99879.78;;;29.65
42197;BMP280;27866;48.146;17.098;2023-06-22T07:21:25;99870.91;;;31.70
42197;BMP280;27866;48.146;17.098;2023-06-22T07:25:36;99855.69;;;32.31
42197;BMP280;27866;48.146;17.098;2023-06-22T07:29:47;99873.00;;;31.57
42197;BMP280;27866;48.146;17.098;2023-06-22T07:33:58;99872.72;;;34.39
42197;BMP280;27866;48.146;17.098;2023-06-22T07:38:10;99860.44;;;34.27
42197;BMP280;27866;48.146;17.098;2023-06-22T07:42:21;99850.41;;;33.49
42197;BMP280;27866;48.146;17.098;2023-06-22T07:46:32;99841.44;;;33.12
42197;BMP280;27866;48.146;17.098;2023-06-22T07:50:43;99849.94;;;33.20
42197;BMP280;27866;48.146;17.098;2023-06-22T07:54:55;99846.16;;;32.13
42197;BMP280;27866;48.146;17.098;2023-06-22T07:59:06;99846.09;;;31.53
42197;BMP280;27866;48.146;17.098;2023-06-22T08:03:17;99859.25;;;32.21
42197;BMP280;27866;48.146;17.098;2023-06-22T08:07:28;99844.84;;;32.38
42197;BMP280;27866;48.146;17.098;2023-06-22T08:11:39;99841.16;;;32.82
42197;BMP280;27866;48.146;17.098;2023-06-22T08:15:50;99851.16;;;36.77
42197;BMP280;27866;48.146;17.098;2023-06-22T08:20:01;99834.84;;;35.88
42197;BMP280;27866;48.146;17.098;2023-06-22T08:24:15;99846.69;;;34.65
42197;BMP280;27866;48.146;17.098;2023-06-22T08:28:26;99841.59;;;33.54
42197;BMP280;27866;48.146;17.098;2023-06-22T08:32:37;99843.22;;;32.91
42197;BMP280;27866;48.146;17.098;2023-06-22T08:36:48;99831.91;;;33.69
42197;BMP280;27866;48.146;17.098;2023-06-22T08:41:02;99840.13;;;33.78
42197;BMP280;27866;48.146;17.098;2023-06-22T08:45:14;99839.28;;;33.94
42197;BMP280;27866;48.146;17.098;2023-06-22T08:49:25;99833.19;;;33.82
42197;BMP280;27866;48.146;17.098;2023-06-22T08:53:36;99832.78;;;33.90
42197;BMP280;27866;48.146;17.098;2023-06-22T08:57:47;99818.88;;;34.34
42197;BMP280;27866;48.146;17.098;2023-06-22T09:01:58;99821.59;;;34.39
42197;BMP280;27866;48.146;17.098;2023-06-22T09:06:10;99820.44;;;34.31
42197;BMP280;27866;48.146;17.098;2023-06-22T09:10:21;99821.09;;;36.35
42197;BMP280;27866;48.146;17.098;2023-06-22T09:14:32;99831.22;;;35.68
42197;BMP280;27866;48.146;17.098;2023-06-22T09:18:47;99824.22;;;36.22
42197;BMP280;27866;48.146;17.098;2023-06-22T09:22:58;99806.94;;;37.60
42197;BMP280;27866;48.146;17.098;2023-06-22T09:27:09;99822.88;;;40.14
42197;BMP280;27866;48.146;17.098;2023-06-22T09:31:20;99816.53;;;41.79
42197;BMP280;27866;48.146;17.098;2023-06-22T09:35:36;99814.34;;;42.20
42197;BMP280;27866;48.146;17.098;2023-06-22T09:39:47;99801.19;;;41.39
42197;BMP280;27866;48.146;17.098;2023-06-22T09:43:58;99802.50;;;41.72
42197;BMP280;27866;48.146;17.098;2023-06-22T09:48:09;99802.59;;;44.08
42197;BMP280;27866;48.146;17.098;2023-06-22T09:52:23;99797.78;;;45.49
42197;BMP280;27866;48.146;17.098;2023-06-22T09:56:34;99789.69;;;47.41
42197;BMP280;27866;48.146;17.098;2023-06-22T10:00:45;99788.75;;;48.96
42197;BMP280;27866;48.146;17.098;2023-06-22T10:04:56;99781.34;;;48.73
42197;BMP280;27866;48.146;17.098;2023-06-22T10:09:13;99790.13;;;49.29
42197;BMP280;27866;48.146;17.098;2023-06-22T10:13:30;99786.75;;;50.51
42197;BMP280;27866;48.146;17.098;2023-06-22T10:17:41;99767.94;;;48.72
42197;BMP280;27866;48.146;17.098;2023-06-22T10:21:52;99769.16;;;49.39
42197;BMP280;27866;48.146;17.098;2023-06-22T10:26:03;99771.25;;;47.84
42197;BMP280;27866;48.146;17.098;2023-06-22T10:30:14;99768.59;;;49.19
42197;BMP280;27866;48.146;17.098;2023-06-22T10:34:25;99763.22;;;49.37
42197;BMP280;27866;48.146;17.098;2023-06-22T10:38:36;99755.94;;;49.03
42197;BMP280;27866;48.146;17.098;2023-06-22T10:42:47;99751.47;;;48.49
42197;BMP280;27866;48.146;17.098;2023-06-22T10:46:58;99751.53;;;48.87
42197;BMP280;27866;48.146;17.098;2023-06-22T10:51:09;99751.88;;;47.58
42197;BMP280;27866;48.146;17.098;2023-06-22T10:55:20;99741.03;;;49.45
42197;BMP280;27866;48.146;17.098;2023-06-22T10:59:32;99729.94;;;48.39
42197;BMP280;27866;48.146;17.098;2023-06-22T11:03:43;99725.50;;;48.73
42197;BMP280;27866;48.146;17.098;2023-06-22T11:07:54;99725.84;;;48.10
42197;BMP280;27866;48.146;17.098;2023-06-22T11:12:07;99731.38;;;47.44
42197;BMP280;27866;48.146;17.098;2023-06-22T11:16:18;99715.19;;;47.74
42197;BMP280;27866;48.146;17.098;2023-06-22T11:20:29;99712.03;;;48.45
42197;BMP280;27866;48.146;17.098;2023-06-22T11:24:40;99702.28;;;49.39
42197;BMP280;27866;48.146;17.098;2023-06-22T11:28:51;99703.41;;;48.70
42197;BMP280;27866;48.146;17.098;2023-06-22T11:33:02;99698.72;;;48.97
42197;BMP280;27866;48.146;17.098;2023-06-22T11:37:13;99691.56;;;49.79
42197;BMP280;27866;48.146;17.098;2023-06-22T11:41:24;99693.91;;;50.25
42197;BMP280;27866;48.146;17.098;2023-06-22T11:45:35;99689.34;;;49.69
42197;BMP280;27866;48.146;17.098;2023-06-22T11:49:46;99683.28;;;48.54
42197;BMP280;27866;48.146;17.098;2023-06-22T11:53:57;99669.72;;;49.56
42197;BMP280;27866;48.146;17.098;2023-06-22T11:58:09;99679.50;;;50.17
42197;BMP280;27866;48.146;17.098;2023-06-22T12:02:20;99669.00;;;50.55
42197;BMP280;27866;48.146;17.098;2023-06-22T12:06:32;99664.78;;;51.16
42197;BMP280;27866;48.146;17.098;2023-06-22T12:10:44;99669.28;;;51.67
42197;BMP280;27866;48.146;17.098;2023-06-22T12:14:55;99660.72;;;50.55
42197;BMP280;27866;48.146;17.098;2023-06-22T12:19:06;99652.75;;;50.50
42197;BMP280;27866;48.146;17.098;2023-06-22T12:23:17;99661.16;;;51.56
42197;BMP280;27866;48.146;17.098;2023-06-22T12:27:28;99665.91;;;52.02
42197;BMP280;27866;48.146;17.098;2023-06-22T12:31:41;99664.22;;;51.51
42197;BMP280;27866;48.146;17.098;2023-06-22T12:35:52;99654.34;;;50.51
42197;BMP280;27866;48.146;17.098;2023-06-22T12:40:03;99647.19;;;50.32
42197;BMP280;27866;48.146;17.098;2023-06-22T12:44:17;99646.47;;;50.35
42197;BMP280;27866;48.146;17.098;2023-06-22T12:48:28;99638.50;;;49.22
42197;BMP280;27866;48.146;17.098;2023-06-22T12:52:39;99627.06;;;49.80
42197;BMP280;27866;48.146;17.098;2023-06-22T12:56:51;99628.88;;;47.40
42197;BMP280;27866;48.146;17.098;2023-06-22T13:01:02;99631.50;;;48.06
42197;BMP280;27866;48.146;17.098;2023-06-22T13:05:13;99626.06;;;46.14
42197;BMP280;27866;48.146;17.098;2023-06-22T13:09:24;99615.75;;;45.63
42197;BMP280;27866;48.146;17.098;2023-06-22T13:13:35;99620.84;;;44.76
42197;BMP280;27866;48.146;17.098;2023-06-22T13:17:46;99615.38;;;44.76
42197;BMP280;27866;48.146;17.098;2023-06-22T13:21:58;99615.56;;;44.63
42197;BMP280;27866;48.146;17.098;2023-06-22T13:26:09;99616.69;;;43.96
42197;BMP280;27866;48.146;17.098;2023-06-22T13:30:20;99615.72;;;43.09
42197;BMP280;27866;48.146;17.098;2023-06-22T13:34:31;99615.63;;;44.14
42197;BMP280;27866;48.146;17.098;2023-06-22T13:38:42;99600.47;;;45.34
42197;BMP280;27866;48.146;17.098;2023-06-22T13:42:54;99599.88;;;45.49
42197;BMP280;27866;48.146;17.098;2023-06-22T13:47:05;99600.63;;;45.30
42197;BMP280;27866;48.146;17.098;2023-06-22T13:51:17;99605.06;;;46.18
42197;BMP280;27866;48.146;17.098;2023-06-22T13:55:28;99598.38;;;46.47
42197;BMP280;27866;48.146;17.098;2023-06-22T13:59:39;99587.13;;;45.25
42197;BMP280;27866;48.146;17.098;2023-06-22T14:03:50;99586.00;;;43.91
42197;BMP280;27866;48.146;17.098;2023-06-22T14:08:01;99583.78;;;43.39
42197;BMP280;27866;48.146;17.098;2023-06-22T14:12:12;99576.69;;;44.58
42197;BMP280;27866;48.146;17.098;2023-06-22T14:16:23;99583.06;;;44.86
42197;BMP280;27866;48.146;17.098;2023-06-22T14:20:35;99563.47;;;45.57
42197;BMP280;27866;48.146;17.098;2023-06-22T14:24:47;99556.00;;;45.65
42197;BMP280;27866;48.146;17.098;2023-06-22T14:28:58;99546.50;;;45.91
42197;BMP280;27866;48.146;17.098;2023-06-22T14:33:09;99539.50;;;44.81
42197;BMP280;27866;48.146;17.098;2023-06-22T14:37:20;99528.56;;;42.96
42197;BMP280;27866;48.146;17.098;2023-06-22T14:41:31;99536.38;;;41.96
42197;BMP280;27866;48.146;17.098;2023-06-22T14:45:42;99520.16;;;40.91
42197;BMP280;27866;48.146;17.098;2023-06-22T14:49:53;99516.31;;;39.68
42197;BMP280;27866;48.146;17.098;2023-06-22T14:54:05;99513.63;;;39.28
42197;BMP280;27866;48.146;17.098;2023-06-22T14:58:16;99512.41;;;38.93
42197;BMP280;27866;48.146;17.098;2023-06-22T15:02:27;99508.69;;;38.01
42197;BMP280;27866;48.146;17.098;2023-06-22T15:06:38;99504.44;;;37.54
42197;BMP280;27866;48.146;17.098;2023-06-22T15:10:50;99498.44;;;37.56
42197;BMP280;27866;48.146;17.098;2023-06-22T15:15:02;99493.47;;;37.78
42197;BMP280;27866;48.146;17.098;2023-06-22T15:19:13;99490.28;;;37.71
42197;BMP280;27866;48.146;17.098;2023-06-22T15:23:24;99489.25;;;37.11
42197;BMP280;27866;48.146;17.098;2023-06-22T15:27:35;99482.69;;;36.50
42197;BMP280;27866;48.146;17.098;2023-06-22T15:31:46;99470.50;;;36.62
42197;BMP280;27866;48.146;17.098;2023-06-22T15:35:57;99472.91;;;36.78
42197;BMP280;27866;48.146;17.098;2023-06-22T15:40:11;99479.28;;;37.06
42197;BMP280;27866;48.146;17.098;2023-06-22T15:44:23;99475.63;;;36.73
42197;BMP280;27866;48.146;17.098;2023-06-22T15:48:34;99480.28;;;36.15
42197;BMP280;27866;48.146;17.098;2023-06-22T15:52:45;99475.19;;;36.33
42197;BMP280;27866;48.146;17.098;2023-06-22T15:56:58;99478.94;;;36.27
42197;BMP280;27866;48.146;17.098;2023-06-22T16:01:09;99482.97;;;35.81
42197;BMP280;27866;48.146;17.098;2023-06-22T16:05:20;99477.31;;;35.63
42197;BMP280;27866;48.146;17.098;2023-06-22T16:09:31;99479.22;;;35.87
42197;BMP280;27866;48.146;17.098;2023-06-22T16:13:42;99474.59;;;35.73
42197;BMP280;27866;48.146;17.098;2023-06-22T16:17:53;99461.66;;;35.55
42197;BMP280;27866;48.146;17.098;2023-06-22T16:22:04;99462.97;;;35.38
42197;BMP280;27866;48.146;17.098;2023-06-22T16:26:16;99464.88;;;35.43
42197;BMP280;27866;48.146;17.098;2023-06-22T16:30:27;99472.59;;;35.20
42197;BMP280;27866;48.146;17.098;2023-06-22T16:34:38;99462.41;;;35.41
42197;BMP280;27866;48.146;17.098;2023-06-22T16:38:49;99464.84;;;35.38
42197;BMP280;27866;48.146;17.098;2023-06-22T16:43:03;99465.31;;;35.06
42197;BMP280;27866;48.146;17.098;2023-06-22T16:47:14;99446.78;;;35.38
42197;BMP280;27866;48.146;17.098;2023-06-22T16:51:25;99450.34;;;35.44
42197;BMP280;27866;48.146;17.098;2023-06-22T16:55:36;99443.00;;;35.25
42197;BMP280;27866;48.146;17.098;2023-06-22T16:59:52;99438.34;;;35.01
42197;BMP280;27866;48.146;17.098;2023-06-22T17:04:09;99428.31;;;34.92
42197;BMP280;27866;48.146;17.098;2023-06-22T17:08:21;99431.56;;;34.89
42197;BMP280;27866;48.146;17.098;2023-06-22T17:12:32;99429.09;;;34.83
42197;BMP280;27866;48.146;17.098;2023-06-22T17:16:44;99440.06;;;34.67
42197;BMP280;27866;48.146;17.098;2023-06-22T17:20:55;99428.47;;;34.62
42197;BMP280;27866;48.146;17.098;2023-06-22T17:25:09;99421.84;;;34.33
42197;BMP280;27866;48.146;17.098;2023-06-22T17:29:20;99421.13;;;34.03
42197;BMP280;27866;48.146;17.098;2023-06-22T17:33:32;99412.50;;;34.05
42197;BMP280;27866;48.146;17.098;2023-06-22T17:37:56;99413.28;;;34.01
42197;BMP280;27866;48.146;17.098;2023-06-22T17:42:08;99405.81;;;33.73
42197;BMP280;27866;48.146;17.098;2023-06-22T17:46:19;99406.75;;;33.57
42197;BMP280;27866;48.146;17.098;2023-06-22T17:50:31;99398.91;;;33.51
42197;BMP280;27866;48.146;17.098;2023-06-22T17:54:42;99396.66;;;33.38
42197;BMP280;27866;48.146;17.098;2023-06-22T17:58:53;99397.31;;;33.24
42197;BMP280;27866;48.146;17.098;2023-06-22T18:03:04;99396.06;;;33.11
42197;BMP280;27866;48.146;17.098;2023-06-22T18:07:16;99370.94;;;32.96
42197;BMP280;27866;48.146;17.098;2023-06-22T18:11:53;99370.84;;;32.86
42197;BMP280;27866;48.146;17.098;2023-06-22T18:16:06;99365.16;;;32.78
42197;BMP280;27866;48.146;17.098;2023-06-22T18:20:18;99372.31;;;32.72
42197;BMP280;27866;48.146;17.098;2023-06-22T18:24:32;99373.50;;;32.60
42197;BMP280;27866;48.146;17.098;2023-06-22T18:28:44;99379.78;;;32.50
42197;BMP280;27866;48.146;17.098;2023-06-22T18:32:56;99375.50;;;32.49
42197;BMP280;27866;48.146;17.098;2023-06-22T18:37:08;99372.94;;;32.38
42197;BMP280;27866;48.146;17.098;2023-06-22T18:41:32;99376.06;;;32.30
42197;BMP280;27866;48.146;17.098;2023-06-22T18:45:44;99379.47;;;32.26
42197;BMP280;27866;48.146;17.098;2023-06-22T18:50:05;99404.09;;;32.23
42197;BMP280;27866;48.146;17.098;2023-06-22T18:54:33;99414.91;;;32.12
42197;BMP280;27866;48.146;17.098;2023-06-22T18:58:45;99415.81;;;32.01
42197;BMP280;27866;48.146;17.098;2023-06-22T19:03:05;99411.41;;;31.95
42197;BMP280;27866;48.146;17.098;2023-06-22T19:07:16;99407.53;;;31.86
42197;BMP280;27866;48.146;17.098;2023-06-22T19:11:27;99415.75;;;31.80
42197;BMP280;27866;48.146;17.098;2023-06-22T19:15:39;99433.75;;;31.69
42197;BMP280;27866;48.146;17.098;2023-06-22T19:19:52;99443.69;;;31.68
42197;BMP280;27866;48.146;17.098;2023-06-22T19:24:03;99428.56;;;31.62
42197;BMP280;27866;48.146;17.098;2023-06-22T19:28:14;99432.69;;;31.54
42197;BMP280;27866;48.146;17.098;2023-06-22T19:32:25;99417.00;;;31.46
42197;BMP280;27866;48.146;17.098;2023-06-22T19:36:36;99411.34;;;31.42
42197;BMP280;27866;48.146;17.098;2023-06-22T19:40:47;99416.03;;;31.36
42197;BMP280;27866;48.146;17.098;2023-06-22T19:44:58;99423.50;;;31.34
42197;BMP280;27866;48.146;17.098;2023-06-22T19:49:10;99417.47;;;31.27
42197;BMP280;27866;48.146;17.098;2023-06-22T19:53:21;99426.56;;;31.26
42197;BMP280;27866;48.146;17.098;2023-06-22T19:57:36;99423.22;;;31.19
42197;BMP280;27866;48.146;17.098;2023-06-22T20:01:47;99430.56;;;31.12
42197;BMP280;27866;48.146;17.098;2023-06-22T20:10:20;99419.66;;;31.03
42197;BMP280;27866;48.146;17.098;2023-06-22T20:14:34;99430.19;;;30.93
42197;BMP280;27866;48.146;17.098;2023-06-22T20:18:45;99418.91;;;30.91
42197;BMP280;27866;48.146;17.098;2023-06-22T20:22:57;99420.44;;;30.87
42197;BMP280;27866;48.146;17.098;2023-06-22T20:27:11;99430.81;;;30.84
42197;BMP280;27866;48.146;17.098;2023-06-22T20:31:27;99415.47;;;30.80
42197;BMP280;27866;48.146;17.098;2023-06-22T20:35:38;99415.97;;;30.77
42197;BMP280;27866;48.146;17.098;2023-06-22T20:39:49;99416.19;;;30.75
42197;BMP280;27866;48.146;17.098;2023-06-22T20:44:02;99414.13;;;30.66
42197;BMP280;27866;48.146;17.098;2023-06-22T20:48:16;99412.38;;;30.60
42197;BMP280;27866;48.146;17.098;2023-06-22T20:52:27;99403.22;;;30.56
42197;BMP280;27866;48.146;17.098;2023-06-22T20:56:39;99399.50;;;30.46
42197;BMP280;27866;48.146;17.098;2023-06-22T21:00:50;99394.50;;;30.50
42197;BMP280;27866;48.146;17.098;2023-06-22T21:05:01;99392.56;;;30.45
42197;BMP280;27866;48.146;17.098;2023-06-22T21:09:12;99381.03;;;30.45
42197;BMP280;27866;48.146;17.098;2023-06-22T21:13:23;99375.69;;;30.45
42197;BMP280;27866;48.146;17.098;2023-06-22T21:17:34;99378.63;;;30.43
42197;BMP280;27866;48.146;17.098;2023-06-22T21:21:45;99380.91;;;30.40
42197;BMP280;27866;48.146;17.098;2023-06-22T21:25:57;99365.38;;;30.37
42197;BMP280;27866;48.146;17.098;2023-06-22T21:30:09;99366.56;;;30.30
42197;BMP280;27866;48.146;17.098;2023-06-22T21:34:21;99367.38;;;30.30
42197;BMP280;27866;48.146;17.098;2023-06-22T21:38:33;99359.59;;;30.29
42197;BMP280;27866;48.146;17.098;2023-06-22T21:42:44;99348.09;;;30.28
42197;BMP280;27866;48.146;17.098;2023-06-22T21:46:58;99350.66;;;30.23
42197;BMP280;27866;48.146;17.098;2023-06-22T21:51:09;99327.78;;;30.16
42197;BMP280;27866;48.146;17.098;2023-06-22T21:55:20;99316.41;;;30.09
42197;BMP280;27866;48.146;17.098;2023-06-22T21:59:32;99301.78;;;30.01
42197;BMP280;27866;48.146;17.098;2023-06-22T22:03:43;99281.47;;;30.00
42197;BMP280;27866;48.146;17.098;2023-06-22T22:07:54;99268.69;;;29.91
42197;BMP280;27866;48.146;17.098;2023-06-22T22:12:05;99251.34;;;29.77
42197;BMP280;27866;48.146;17.098;2023-06-22T22:16:16;99253.91;;;29.72
42197;BMP280;27866;48.146;17.098;2023-06-22T22:20:27;99257.81;;;29.59
42197;BMP280;27866;48.146;17.098;2023-06-22T22:24:39;99249.06;;;29.47
42197;BMP280;27866;48.146;17.098;2023-06-22T22:28:50;99245.22;;;29.43
42197;BMP280;27866;48.146;17.098;2023-06-22T22:33:01;99224.91;;;29.42
42197;BMP280;27866;48.146;17.098;2023-06-22T22:37:12;99219.22;;;29.39
42197;BMP280;27866;48.146;17.098;2023-06-22T22:41:23;99217.59;;;29.38
42197;BMP280;27866;48.146;17.098;2023-06-22T22:45:34;99207.75;;;29.38
42197;BMP280;27866;48.146;17.098;2023-06-22T22:49:45;99185.38;;;29.39
42197;BMP280;27866;48.146;17.098;2023-06-22T22:53:56;99191.84;;;29.32
42197;BMP280;27866;48.146;17.098;2023-06-22T22:58:07;99201.72;;;29.32
42197;BMP280;27866;48.146;17.098;2023-06-22T23:02:18;99221.44;;;29.31
42197;BMP280;27866;48.146;17.098;2023-06-22T23:06:32;99216.66;;;29.33
42197;BMP280;27866;48.146;17.098;2023-06-22T23:10:43;99190.94;;;29.27
42197;BMP280;27866;48.146;17.098;2023-06-22T23:14:54;99197.91;;;29.28
42197;BMP280;27866;48.146;17.098;2023-06-22T23:19:05;99195.69;;;29.25
42197;BMP280;27866;48.146;17.098;2023-06-22T23:23:16;99196.41;;;29.21
42197;BMP280;27866;48.146;17.098;2023-06-22T23:27:27;99192.44;;;29.12
42197;BMP280;27866;48.146;17.098;2023-06-22T23:31:39;99202.16;;;29.06
42197;BMP280;27866;48.146;17.098;2023-06-22T23:35:50;99205.31;;;29.04
42197;BMP280;27866;48.146;17.098;2023-06-22T23:40:01;99214.56;;;29.01
42197;BMP280;27866;48.146;17.098;2023-06-22T23:44:12;99198.59;;;28.90
42197;BMP280;27866;48.146;17.098;2023-06-22T23:48:23;99195.91;;;28.90
42197;BMP280;27866;48.146;17.098;2023-06-22T23:52:34;99199.25;;;28.86
42197;BMP280;27866;48.146;17.098;2023-06-22T23:56:51;99193.59;;;28.82
